Portada
METAR-TAF:

METAR-TAF

Aeroports :

Xi'an, Xina

latitud: 34-26N, longitud: 108-45E, altitud: 479 m

Observació

L'informe es va fer fa 37 minuts, a les 11:00 UTC
Vent 6 kt del Est/Nord-Est
Temperatura 5°C
Humitat 93%
Pressió 1023 hPa
Visibilitat: 4500 m
Escasses núvols a una alçada de 500 ft
Núvols disperses a una alçada de 1500 ft
Cel cobert a una alçada de 5000 ft
pluja, boirina

METAR: ZLXY 271100Z 06003MPS 4500 -RA BR FEW005 SCT015 OVC050 05/04 Q1023 NOSIG

Hora: 19:37 (11:37 UTC)

Pronòstic

L'informe es va fer fa 8 hores i 33 minuts, a les 03:04 UTC
Pronòstic vàlid del 27 a les 06 UTC al 28 a les 06 UTC
Vent 8 kt del Est/Nord-Est
Visibilitat: 3000 m
Núvols disperses a una alçada de 3000 ft
Cel cobert a una alçada de 5000 ft
pluja, boirina
Temporalment
l' 27 a les 06 UTC al 27 a les 09 UTC
pluja
Evolucionant progressivament
l' 27 a les 14 UTC al 27 a les 15 UTC
boirina

TAF: ZLXY 270304Z 2706/2806 06004MPS 3000 -RA BR SCT030 OVC050 TX08/2708Z TN04/2723Z TEMPO 2706/2709 RA BECMG 2714/2715 BR

Observacions i pronòstics meteorològics de més de 4000 aeroports (METAR i TAF).

Les estacions disponibles són els punts grocs i vermells al mapa.

Posi el ratolí al punt desitjat per veure el nom de l'estació.

Feu clic per veure les observacions i els pronòstics meteorològics.

Per canviar el mapa: feu clic els botons verds amb una creu de color negre per apropar; al botó verd amb un guió per allunyar la imatge; o en les fletxes verdes per a mapes adjacents.


METAR-TAF: